Carnival Triumph — C6FN5 — position and weather

sailwx.info

Track history (hours):
 
Tides and Currents Weather Stations Pressure Air Temp Water Temp Dewpoint Dewpoint Depression Visibility Wind Speed Wind Dir Waves Ship Positions

Carnival Triumph

Operator: Carnival Cruise Lines

Last reported at 2019-Aug-20 09:14 UTC. Time now 2019-Aug-20 10:04 UTC.
Position N 37°15' W 071°46'.

Type: Passenger vessel. MMSI: 308045000.

Date/timePositionNaut miles runAvg speedWind from/ knotsBaromVisibWave heightAir tempDewpointWater temp
2019-Aug-20 09:14N 37°15' W 071°46'313.2
2019-Aug-20 09:00N 37°18' W 071°48'2300.0 230 / 201018.910.8 26.023.226.0
2019-Aug-20 08:59N 37°20' W 071°49'4419.9
2019-Aug-20 06:48N 37°59' W 072°11'620.7
2019-Aug-20 06:30N 38°05' W 072°14'714.6
2019-Aug-20 06:00N 38°12' W 072°18'642.4 220 / 251018.910.8 26.023.225.0
2019-Aug-20 05:50N 38°18' W 072°21'2420.7
2019-Aug-20 04:41N 38°40' W 072°34'1220.4
2019-Aug-20 04:06N 38°51' W 072°40'220.5
2019-Aug-20 03:59N 38°53' W 072°41'1020.6
2019-Aug-20 03:30N 39°02' W 072°46'918.6
2019-Aug-20 03:00N 39°10' W 072°51'1018.2
2019-Aug-20 02:29N 39°19' W 072°56'817.9
2019-Aug-20 02:00N 39°27' W 073°01'2418.3
2019-Aug-20 00:43N 39°48' W 073°13'420.3
2019-Aug-20 00:30N 39°52' W 073°15'1320.4
2019-Aug-19 23:53N 40°03' W 073°23'820.4
2019-Aug-19 23:30N 40°09' W 073°30'1020.0
2019-Aug-19 23:00N 40°17' W 073°39'918.7
2019-Aug-19 22:30N 40°24' W 073°46'612.5
2019-Aug-19 22:00N 40°28' W 073°52'714.5
2019-Aug-19 21:31N 40°32' W 074°01'714.8
2019-Aug-19 21:00N 40°39' W 074°03'611.6
2019-Aug-19 20:31N 40°44' W 074°01'2 4.1
2019-Aug-19 20:00N 40°46' W 073°60'0 0.0
2019-Aug-19 19:27N 40°46' W 073°60'0 0.0
2019-Aug-19 19:00N 40°46' W 073°60'0 0.0
2019-Aug-19 18:21N 40°46' W 073°60'0 0.0
2019-Aug-19 18:00N 40°46' W 073°60'0 0.0
2019-Aug-19 17:30N 40°46' W 073°60'0 0.0
2019-Aug-19 17:00N 40°46' W 073°60'0 0.0
2019-Aug-19 16:30N 40°46' W 073°60'0 0.0
2019-Aug-19 15:54N 40°46' W 073°60'0 0.1
2019-Aug-19 15:30N 40°46' W 073°60'0 0.0
2019-Aug-19 15:00N 40°46' W 073°60'0 0.0
2019-Aug-19 14:30N 40°46' W 073°60'0 0.0
2019-Aug-19 14:00N 40°46' W 073°60'0 0.0
2019-Aug-19 13:30N 40°46' W 073°60'0 0.0
2019-Aug-19 12:54N 40°46' W 073°60'0 0.0
2019-Aug-19 12:30N 40°46' W 073°60'0 0.0
2019-Aug-19 12:00N 40°46' W 073°60'0 0.0
2019-Aug-19 11:30N 40°46' W 073°60'0 0.0
2019-Aug-19 11:00N 40°46' W 073°60'0 0.0
2019-Aug-19 10:30N 40°46' W 073°60'0 0.8
2019-Aug-19 10:00N 40°46' W 074°00'4 7.4
2019-Aug-19 09:30N 40°42' W 074°02'611.4
2019-Aug-19 09:00N 40°37' W 074°03'713.5
2019-Aug-19 08:30N 40°31' W 073°58'815.5
2019-Aug-19 08:00N 40°27' W 073°49'612.8
2019-Aug-19 07:30N 40°24' W 073°42'917.9
2019-Aug-19 07:00N 40°19' W 073°33'714.6
2019-Aug-19 06:30N 40°14' W 073°25'816.4
2019-Aug-19 06:00N 40°09' W 073°16'5333.5
2019-Aug-19 06:00N 40°06' W 073°12'811.0 200 / 121016.810.8 27.024.326.0
2019-Aug-19 05:18N 40°01' W 073°04'517.5
2019-Aug-19 05:00N 39°58' W 072°59'917.7
2019-Aug-19 04:30N 39°51' W 072°51'816.6
2019-Aug-19 04:00N 39°46' W 072°43'816.4
2019-Aug-19 03:29N 39°40' W 072°35'1718.0
2019-Aug-19 02:32N 39°28' W 072°19'119.3
2019-Aug-19 02:30N 39°27' W 072°19'1019.4
2019-Aug-19 02:00N 39°21' W 072°09'1619.4
2019-Aug-19 01:10N 39°09' W 071°55'14119.6
2019-Aug-18 18:00N 37°30' W 069°48'17319.2 230 / 201020.910.8 27.024.326.0
2019-Aug-18 09:00N 35°18' W 067°30'6220.7 220 / 281019.9 27.022.827.0
2019-Aug-18 06:00N 34°30' W 066°42'128 5.3 220 / 151022.610.8 27.024.326.0
2019-Aug-17 06:00N 32°54' W 065°00'23119.3 220 / 201024.010.8 27.024.326.0
2019-Aug-16 18:00N 35°42' W 068°12'9118.2 220 / 201020.210.8 28.022.425.0
2019-Aug-16 13:00N 36°48' W 069°30'12918.5 220 / 221020.3 26.023.227.0
2019-Aug-16 06:00N 35°42' W 071°48'25956.3 090 / 251016.310.8 27.022.825.0
2019-Aug-16 01:23N 39°53' W 073°10'1720.1
2019-Aug-16 00:33N 40°05' W 073°25'319.9
2019-Aug-16 00:26N 40°07' W 073°27'919.8
2019-Aug-16 00:00N 40°14' W 073°34'1019.5
2019-Aug-15 23:30N 40°21' W 073°43'815.3
2019-Aug-15 23:00N 40°26' W 073°50'713.7
2019-Aug-15 22:30N 40°30' W 073°57'713.9
2019-Aug-15 22:00N 40°36' W 074°02'5 9.7
2019-Aug-15 21:30N 40°41' W 074°03'510.7
2019-Aug-15 21:00N 40°46' W 074°01'1 1.3
2019-Aug-15 20:29N 40°46' W 073°60'0 0.0
2019-Aug-15 19:59N 40°46' W 073°60'0 0.0
2019-Aug-15 19:29N 40°46' W 073°60'0 0.0
2019-Aug-15 18:59N 40°46' W 073°60'0 0.0
2019-Aug-15 18:29N 40°46' W 073°60'0 0.0
2019-Aug-15 17:56N 40°46' W 073°60'0 0.0
2019-Aug-15 17:29N 40°46' W 073°60'0 0.0
2019-Aug-15 16:59N 40°46' W 073°60'0 0.0
2019-Aug-15 16:29N 40°46' W 073°60'0 0.0
2019-Aug-15 15:59N 40°46' W 073°60'0 0.0
2019-Aug-15 15:29N 40°46' W 073°60'0 0.0
2019-Aug-15 14:53N 40°46' W 073°60'0 0.0
2019-Aug-15 14:29N 40°46' W 073°60'0 0.0
2019-Aug-15 13:59N 40°46' W 073°60'0 0.0
2019-Aug-15 13:23N 40°46' W 073°60'0 0.0
2019-Aug-15 12:59N 40°46' W 073°60'0 0.0
2019-Aug-15 12:26N 40°46' W 073°60'0 0.0
2019-Aug-15 11:59N 40°46' W 073°60'0 0.2
2019-Aug-15 11:30N 40°46' W 073°60'2 3.3
2019-Aug-15 11:00N 40°45' W 074°01'510.7
2019-Aug-15 10:30N 40°40' W 074°03'714.3
2019-Aug-15 10:00N 40°33' W 074°01'815.9
2019-Aug-15 09:30N 40°28' W 073°52'510.5
2019-Aug-15 08:59N 40°26' W 073°46'613.0
2019-Aug-15 08:30N 40°22' W 073°40'1114.5
2019-Aug-15 07:44N 40°15' W 073°28'717.6
2019-Aug-15 07:20N 40°11' W 073°21'717.5
2019-Aug-15 06:58N 40°06' W 073°14'2020.2
2019-Aug-15 06:00N 39°48' W 073°06'22718.9 060 / 151014.210.8 26.023.226.0
2019-Aug-14 18:00N 36°18' W 071°18'18718.7 230 / 251013.110.8 27.024.326.0
2019-Aug-14 08:00N 33°12' W 071°00'4824.1 190 / 251015.010.8 26.023.226.0
2019-Aug-14 06:00N 32°24' W 070°54'27122.6 220 / 151017.110.8 26.023.225.0
2019-Aug-13 18:00N 27°54' W 070°30'19321.4 150 / 181019.210.8 26.023.225.0
2019-Aug-13 09:00N 24°42' W 070°12'6622.1 110 / 181016.3 27.024.326.0
2019-Aug-13 06:00N 23°36' W 070°06'19321.5 100 / 201017.210.8 26.023.226.0
2019-Aug-12 21:00N 20°24' W 070°30'26411.6 110 / 321012.9 28.025.326.0
2019-Aug-11 22:09N 18°35' W 066°15'317.8
2019-Aug-11 22:00N 18°34' W 066°12'714.0
2019-Aug-11 21:30N 18°29' W 066°08'1 2.2
2019-Aug-11 20:59N 18°28' W 066°07'0 0.0
2019-Aug-11 20:29N 18°28' W 066°07'0 0.0
2019-Aug-11 19:59N 18°28' W 066°07'0 0.0
2019-Aug-11 19:29N 18°28' W 066°07'0 0.0
2019-Aug-11 18:29N 18°28' W 066°07'0 0.0
2019-Aug-11 17:59N 18°28' W 066°07'0 0.0
2019-Aug-11 17:29N 18°28' W 066°07'0 0.0
2019-Aug-11 16:59N 18°28' W 066°07'0 0.0
2019-Aug-11 16:29N 18°28' W 066°07'0 0.0
2019-Aug-11 15:59N 18°28' W 066°07'0 0.0
2019-Aug-11 15:29N 18°28' W 066°07'0 0.0
2019-Aug-11 14:59N 18°28' W 066°07'0 0.0
2019-Aug-11 14:29N 18°28' W 066°07'0 0.0
2019-Aug-11 14:00N 18°28' W 066°07'0 0.6
2019-Aug-11 13:30N 18°27' W 066°07'510.0
2019-Aug-11 13:01N 18°32' W 066°09'713.0
2019-Aug-11 12:30N 18°38' W 066°12'7320.9
2019-Aug-11 09:00N 19°24' W 067°12'4213.8 140 / 301016.910.8 27.024.326.0
2019-Aug-11 06:00N 19°48' W 067°48'   190 / 331018.010.8 27.024.326.0
Track history (hours):
 
Tides and Currents Weather Stations Pressure Air Temp Water Temp Dewpoint Dewpoint Depression Visibility Wind Speed Wind Dir Waves Ship Positions

Carnival Triumph

Operator: Carnival Cruise Lines

Last reported at 2019-Aug-20 09:14 UTC. Time now 2019-Aug-20 10:04 UTC.
Position N 37°15' W 071°46'.

Type: Passenger vessel. MMSI: 308045000.

Date/timePositionNaut miles runAvg speedWind from/ knotsBaromVisibWave heightAir tempDewpointWater temp
2019-Aug-20 09:14N 37°15' W 071°46'313.2
2019-Aug-20 09:00N 37°18' W 071°48'2300.0 230 / 201018.910.8 26.023.226.0
2019-Aug-20 08:59N 37°20' W 071°49'4419.9
2019-Aug-20 06:48N 37°59' W 072°11'620.7
2019-Aug-20 06:30N 38°05' W 072°14'714.6
2019-Aug-20 06:00N 38°12' W 072°18'642.4 220 / 251018.910.8 26.023.225.0
2019-Aug-20 05:50N 38°18' W 072°21'2420.7
2019-Aug-20 04:41N 38°40' W 072°34'1220.4
2019-Aug-20 04:06N 38°51' W 072°40'220.5
2019-Aug-20 03:59N 38°53' W 072°41'1020.6
2019-Aug-20 03:30N 39°02' W 072°46'918.6
2019-Aug-20 03:00N 39°10' W 072°51'1018.2
2019-Aug-20 02:29N 39°19' W 072°56'817.9
2019-Aug-20 02:00N 39°27' W 073°01'2418.3
2019-Aug-20 00:43N 39°48' W 073°13'420.3
2019-Aug-20 00:30N 39°52' W 073°15'1320.4
2019-Aug-19 23:53N 40°03' W 073°23'820.4
2019-Aug-19 23:30N 40°09' W 073°30'1020.0
2019-Aug-19 23:00N 40°17' W 073°39'918.7
2019-Aug-19 22:30N 40°24' W 073°46'612.5
2019-Aug-19 22:00N 40°28' W 073°52'714.5
2019-Aug-19 21:31N 40°32' W 074°01'714.8
2019-Aug-19 21:00N 40°39' W 074°03'611.6
2019-Aug-19 20:31N 40°44' W 074°01'2 4.1
2019-Aug-19 20:00N 40°46' W 073°60'0 0.0
2019-Aug-19 19:27N 40°46' W 073°60'0 0.0
2019-Aug-19 19:00N 40°46' W 073°60'0 0.0
2019-Aug-19 18:21N 40°46' W 073°60'0 0.0
2019-Aug-19 18:00N 40°46' W 073°60'0 0.0
2019-Aug-19 17:30N 40°46' W 073°60'0 0.0
2019-Aug-19 17:00N 40°46' W 073°60'0 0.0
2019-Aug-19 16:30N 40°46' W 073°60'0 0.0
2019-Aug-19 15:54N 40°46' W 073°60'0 0.1
2019-Aug-19 15:30N 40°46' W 073°60'0 0.0
2019-Aug-19 15:00N 40°46' W 073°60'0 0.0
2019-Aug-19 14:30N 40°46' W 073°60'0 0.0
2019-Aug-19 14:00N 40°46' W 073°60'0 0.0
2019-Aug-19 13:30N 40°46' W 073°60'0 0.0
2019-Aug-19 12:54N 40°46' W 073°60'0 0.0
2019-Aug-19 12:30N 40°46' W 073°60'0 0.0
2019-Aug-19 12:00N 40°46' W 073°60'0 0.0
2019-Aug-19 11:30N 40°46' W 073°60'0 0.0
2019-Aug-19 11:00N 40°46' W 073°60'0 0.0
2019-Aug-19 10:30N 40°46' W 073°60'0 0.8
2019-Aug-19 10:00N 40°46' W 074°00'4 7.4
2019-Aug-19 09:30N 40°42' W 074°02'611.4
2019-Aug-19 09:00N 40°37' W 074°03'713.5
2019-Aug-19 08:30N 40°31' W 073°58'815.5
2019-Aug-19 08:00N 40°27' W 073°49'612.8
2019-Aug-19 07:30N 40°24' W 073°42'917.9
2019-Aug-19 07:00N 40°19' W 073°33'714.6
2019-Aug-19 06:30N 40°14' W 073°25'816.4
2019-Aug-19 06:00N 40°09' W 073°16'5333.5
2019-Aug-19 06:00N 40°06' W 073°12'811.0 200 / 121016.810.8 27.024.326.0
2019-Aug-19 05:18N 40°01' W 073°04'517.5
2019-Aug-19 05:00N 39°58' W 072°59'917.7
2019-Aug-19 04:30N 39°51' W 072°51'816.6
2019-Aug-19 04:00N 39°46' W 072°43'816.4
2019-Aug-19 03:29N 39°40' W 072°35'1718.0
2019-Aug-19 02:32N 39°28' W 072°19'119.3
2019-Aug-19 02:30N 39°27' W 072°19'1019.4
2019-Aug-19 02:00N 39°21' W 072°09'1619.4
2019-Aug-19 01:10N 39°09' W 071°55'14119.6
2019-Aug-18 18:00N 37°30' W 069°48'17319.2 230 / 201020.910.8 27.024.326.0
2019-Aug-18 09:00N 35°18' W 067°30'6220.7 220 / 281019.9 27.022.827.0
2019-Aug-18 06:00N 34°30' W 066°42'128 5.3 220 / 151022.610.8 27.024.326.0
2019-Aug-17 06:00N 32°54' W 065°00'23119.3 220 / 201024.010.8 27.024.326.0
2019-Aug-16 18:00N 35°42' W 068°12'9118.2 220 / 201020.210.8 28.022.425.0
2019-Aug-16 13:00N 36°48' W 069°30'12918.5 220 / 221020.3 26.023.227.0
2019-Aug-16 06:00N 35°42' W 071°48'25956.3 090 / 251016.310.8 27.022.825.0
2019-Aug-16 01:23N 39°53' W 073°10'1720.1
2019-Aug-16 00:33N 40°05' W 073°25'319.9
2019-Aug-16 00:26N 40°07' W 073°27'919.8
2019-Aug-16 00:00N 40°14' W 073°34'1019.5
2019-Aug-15 23:30N 40°21' W 073°43'815.3
2019-Aug-15 23:00N 40°26' W 073°50'713.7
2019-Aug-15 22:30N 40°30' W 073°57'713.9
2019-Aug-15 22:00N 40°36' W 074°02'5 9.7
2019-Aug-15 21:30N 40°41' W 074°03'510.7
2019-Aug-15 21:00N 40°46' W 074°01'1 1.3
2019-Aug-15 20:29N 40°46' W 073°60'0 0.0
2019-Aug-15 19:59N 40°46' W 073°60'0 0.0
2019-Aug-15 19:29N 40°46' W 073°60'0 0.0
2019-Aug-15 18:59N 40°46' W 073°60'0 0.0
2019-Aug-15 18:29N 40°46' W 073°60'0 0.0
2019-Aug-15 17:56N 40°46' W 073°60'0 0.0
2019-Aug-15 17:29N 40°46' W 073°60'0 0.0
2019-Aug-15 16:59N 40°46' W 073°60'0 0.0
2019-Aug-15 16:29N 40°46' W 073°60'0 0.0
2019-Aug-15 15:59N 40°46' W 073°60'0 0.0
2019-Aug-15 15:29N 40°46' W 073°60'0 0.0
2019-Aug-15 14:53N 40°46' W 073°60'0 0.0
2019-Aug-15 14:29N 40°46' W 073°60'0 0.0
2019-Aug-15 13:59N 40°46' W 073°60'0 0.0
2019-Aug-15 13:23N 40°46' W 073°60'0 0.0
2019-Aug-15 12:59N 40°46' W 073°60'0 0.0
2019-Aug-15 12:26N 40°46' W 073°60'0 0.0
2019-Aug-15 11:59N 40°46' W 073°60'0 0.2
2019-Aug-15 11:30N 40°46' W 073°60'2 3.3
2019-Aug-15 11:00N 40°45' W 074°01'510.7
2019-Aug-15 10:30N 40°40' W 074°03'714.3
2019-Aug-15 10:00N 40°33' W 074°01'815.9
2019-Aug-15 09:30N 40°28' W 073°52'510.5
2019-Aug-15 08:59N 40°26' W 073°46'613.0
2019-Aug-15 08:30N 40°22' W 073°40'1114.5
2019-Aug-15 07:44N 40°15' W 073°28'717.6
2019-Aug-15 07:20N 40°11' W 073°21'717.5
2019-Aug-15 06:58N 40°06' W 073°14'2020.2
2019-Aug-15 06:00N 39°48' W 073°06'22718.9 060 / 151014.210.8 26.023.226.0
2019-Aug-14 18:00N 36°18' W 071°18'18718.7 230 / 251013.110.8 27.024.326.0
2019-Aug-14 08:00N 33°12' W 071°00'4824.1 190 / 251015.010.8 26.023.226.0
2019-Aug-14 06:00N 32°24' W 070°54'27122.6 220 / 151017.110.8 26.023.225.0
2019-Aug-13 18:00N 27°54' W 070°30'19321.4 150 / 181019.210.8 26.023.225.0
2019-Aug-13 09:00N 24°42' W 070°12'6622.1 110 / 181016.3 27.024.326.0
2019-Aug-13 06:00N 23°36' W 070°06'19321.5 100 / 201017.210.8 26.023.226.0
2019-Aug-12 21:00N 20°24' W 070°30'26411.6 110 / 321012.9 28.025.326.0
2019-Aug-11 22:09N 18°35' W 066°15'317.8
2019-Aug-11 22:00N 18°34' W 066°12'714.0
2019-Aug-11 21:30N 18°29' W 066°08'1 2.2
2019-Aug-11 20:59N 18°28' W 066°07'0 0.0
2019-Aug-11 20:29N 18°28' W 066°07'0 0.0
2019-Aug-11 19:59N 18°28' W 066°07'0 0.0
2019-Aug-11 19:29N 18°28' W 066°07'0 0.0
2019-Aug-11 18:29N 18°28' W 066°07'0 0.0
2019-Aug-11 17:59N 18°28' W 066°07'0 0.0
2019-Aug-11 17:29N 18°28' W 066°07'0 0.0
2019-Aug-11 16:59N 18°28' W 066°07'0 0.0
2019-Aug-11 16:29N 18°28' W 066°07'0 0.0
2019-Aug-11 15:59N 18°28' W 066°07'0 0.0
2019-Aug-11 15:29N 18°28' W 066°07'0 0.0
2019-Aug-11 14:59N 18°28' W 066°07'0 0.0
2019-Aug-11 14:29N 18°28' W 066°07'0 0.0
2019-Aug-11 14:00N 18°28' W 066°07'0 0.6
2019-Aug-11 13:30N 18°27' W 066°07'510.0
2019-Aug-11 13:01N 18°32' W 066°09'713.0
2019-Aug-11 12:30N 18°38' W 066°12'7320.9
2019-Aug-11 09:00N 19°24' W 067°12'4213.8 140 / 301016.910.8 27.024.326.0
2019-Aug-11 06:00N 19°48' W 067°48'   190 / 331018.010.8 27.024.326.0

Dump ship's entire track history